sensor_id;sensor_type;location;lat;lon;timestamp;temperature;humidity
7331;DHT22;3706;49.198;7.064;2022-11-11T00:01:08;6.50;99.90
7331;DHT22;3706;49.198;7.064;2022-11-11T00:03:36;6.50;99.90
7331;DHT22;3706;49.198;7.064;2022-11-11T00:06:05;6.60;99.90
7331;DHT22;3706;49.198;7.064;2022-11-11T00:08:32;6.70;99.90
7331;DHT22;3706;49.198;7.064;2022-11-11T00:11:03;6.80;99.90
7331;DHT22;3706;49.198;7.064;2022-11-11T00:13:31;6.80;99.90
7331;DHT22;3706;49.198;7.064;2022-11-11T00:16:03;6.90;99.90
7331;DHT22;3706;49.198;7.064;2022-11-11T00:18:30;6.90;99.90
7331;DHT22;3706;49.198;7.064;2022-11-11T00:21:15;6.70;99.90
7331;DHT22;3706;49.198;7.064;2022-11-11T00:23:59;6.50;99.90
7331;DHT22;3706;49.198;7.064;2022-11-11T00:26:45;6.50;99.90
7331;DHT22;3706;49.198;7.064;2022-11-11T00:29:12;6.30;99.90
7331;DHT22;3706;49.198;7.064;2022-11-11T00:31:42;6.20;99.90
7331;DHT22;3706;49.198;7.064;2022-11-11T00:34:23;6.10;99.90
7331;DHT22;3706;49.198;7.064;2022-11-11T00:36:50;6.10;99.90
7331;DHT22;3706;49.198;7.064;2022-11-11T00:39:16;6.20;99.90
7331;DHT22;3706;49.198;7.064;2022-11-11T00:41:42;6.20;99.90
7331;DHT22;3706;49.198;7.064;2022-11-11T00:44:11;6.20;99.90
7331;DHT22;3706;49.198;7.064;2022-11-11T00:46:38;6.10;99.90
7331;DHT22;3706;49.198;7.064;2022-11-11T00:49:25;6.00;99.90
7331;DHT22;3706;49.198;7.064;2022-11-11T00:52:09;6.00;99.90
7331;DHT22;3706;49.198;7.064;2022-11-11T00:54:36;5.90;99.90
7331;DHT22;3706;49.198;7.064;2022-11-11T00:57:03;5.90;99.90
7331;DHT22;3706;49.198;7.064;2022-11-11T00:59:31;5.90;99.90
7331;DHT22;3706;49.198;7.064;2022-11-11T01:01:59;5.80;99.90
7331;DHT22;3706;49.198;7.064;2022-11-11T01:04:26;5.90;99.90
7331;DHT22;3706;49.198;7.064;2022-11-11T01:06:53;5.80;99.90
7331;DHT22;3706;49.198;7.064;2022-11-11T01:09:20;5.80;99.90
7331;DHT22;3706;49.198;7.064;2022-11-11T01:11:47;5.90;99.90
7331;DHT22;3706;49.198;7.064;2022-11-11T01:14:14;5.70;99.90
7331;DHT22;3706;49.198;7.064;2022-11-11T01:16:42;5.70;99.90
7331;DHT22;3706;49.198;7.064;2022-11-11T01:19:09;5.70;99.90
7331;DHT22;3706;49.198;7.064;2022-11-11T01:21:36;5.70;99.90
7331;DHT22;3706;49.198;7.064;2022-11-11T01:24:04;5.70;99.90
7331;DHT22;3706;49.198;7.064;2022-11-11T01:26:31;5.70;99.90
7331;DHT22;3706;49.198;7.064;2022-11-11T01:28:58;5.60;99.90
7331;DHT22;3706;49.198;7.064;2022-11-11T01:31:31;5.70;99.90
7331;DHT22;3706;49.198;7.064;2022-11-11T01:34:02;5.70;99.90
7331;DHT22;3706;49.198;7.064;2022-11-11T01:36:29;5.70;99.90
7331;DHT22;3706;49.198;7.064;2022-11-11T01:38:58;5.60;99.90
7331;DHT22;3706;49.198;7.064;2022-11-11T01:41:28;5.60;99.90
7331;DHT22;3706;49.198;7.064;2022-11-11T01:43:59;5.50;99.90
7331;DHT22;3706;49.198;7.064;2022-11-11T01:46:31;5.40;99.90
7331;DHT22;3706;49.198;7.064;2022-11-11T01:49:14;5.30;99.90
7331;DHT22;3706;49.198;7.064;2022-11-11T01:51:52;5.20;99.90
7331;DHT22;3706;49.198;7.064;2022-11-11T01:54:25;5.20;99.90
7331;DHT22;3706;49.198;7.064;2022-11-11T01:56:58;5.10;99.90
7331;DHT22;3706;49.198;7.064;2022-11-11T01:59:27;5.30;99.90
7331;DHT22;3706;49.198;7.064;2022-11-11T02:01:56;5.50;99.90
7331;DHT22;3706;49.198;7.064;2022-11-11T02:04:36;5.70;99.90
7331;DHT22;3706;49.198;7.064;2022-11-11T02:07:22;5.80;99.90
7331;DHT22;3706;49.198;7.064;2022-11-11T02:09:52;5.90;99.90
7331;DHT22;3706;49.198;7.064;2022-11-11T02:12:23;5.90;99.90
7331;DHT22;3706;49.198;7.064;2022-11-11T02:15:08;5.90;99.90
7331;DHT22;3706;49.198;7.064;2022-11-11T02:17:41;6.10;99.90
7331;DHT22;3706;49.198;7.064;2022-11-11T02:20:16;6.10;99.90
7331;DHT22;3706;49.198;7.064;2022-11-11T02:22:50;6.00;99.90
7331;DHT22;3706;49.198;7.064;2022-11-11T02:25:22;5.80;99.90
7331;DHT22;3706;49.198;7.064;2022-11-11T02:27:51;5.70;99.90
7331;DHT22;3706;49.198;7.064;2022-11-11T02:30:22;5.60;99.90
7331;DHT22;3706;49.198;7.064;2022-11-11T02:32:52;5.60;99.90
7331;DHT22;3706;49.198;7.064;2022-11-11T02:35:21;5.50;99.90
7331;DHT22;3706;49.198;7.064;2022-11-11T02:37:50;5.60;99.90
7331;DHT22;3706;49.198;7.064;2022-11-11T02:40:22;5.50;99.90
7331;DHT22;3706;49.198;7.064;2022-11-11T02:42:50;5.40;99.90
7331;DHT22;3706;49.198;7.064;2022-11-11T02:45:16;5.40;99.90
7331;DHT22;3706;49.198;7.064;2022-11-11T02:47:43;5.40;99.90
7331;DHT22;3706;49.198;7.064;2022-11-11T02:50:10;5.30;99.90
7331;DHT22;3706;49.198;7.064;2022-11-11T02:52:38;5.30;99.90
7331;DHT22;3706;49.198;7.064;2022-11-11T02:55:06;5.40;99.90
7331;DHT22;3706;49.198;7.064;2022-11-11T02:57:35;5.40;99.90
7331;DHT22;3706;49.198;7.064;2022-11-11T03:00:04;5.40;99.90
7331;DHT22;3706;49.198;7.064;2022-11-11T03:02:31;5.30;99.90
7331;DHT22;3706;49.198;7.064;2022-11-11T03:04:59;5.30;99.90
7331;DHT22;3706;49.198;7.064;2022-11-11T03:07:26;5.40;99.90
7331;DHT22;3706;49.198;7.064;2022-11-11T03:09:54;5.40;99.90
7331;DHT22;3706;49.198;7.064;2022-11-11T03:12:21;5.30;99.90
7331;DHT22;3706;49.198;7.064;2022-11-11T03:14:50;5.30;99.90
7331;DHT22;3706;49.198;7.064;2022-11-11T03:17:17;5.30;99.90
7331;DHT22;3706;49.198;7.064;2022-11-11T03:20:01;5.20;99.90
7331;DHT22;3706;49.198;7.064;2022-11-11T03:23:01;5.20;99.90
7331;DHT22;3706;49.198;7.064;2022-11-11T03:25:37;5.20;99.90
7331;DHT22;3706;49.198;7.064;2022-11-11T03:28:06;5.10;99.90
7331;DHT22;3706;49.198;7.064;2022-11-11T03:30:39;5.10;99.90
7331;DHT22;3706;49.198;7.064;2022-11-11T03:33:06;5.00;99.90
7331;DHT22;3706;49.198;7.064;2022-11-11T03:35:34;5.10;99.90
7331;DHT22;3706;49.198;7.064;2022-11-11T03:38:02;5.10;99.90
7331;DHT22;3706;49.198;7.064;2022-11-11T03:40:41;5.30;99.90
7331;DHT22;3706;49.198;7.064;2022-11-11T03:43:14;5.30;99.90
7331;DHT22;3706;49.198;7.064;2022-11-11T03:45:44;5.10;99.90
7331;DHT22;3706;49.198;7.064;2022-11-11T03:48:15;5.10;99.90
7331;DHT22;3706;49.198;7.064;2022-11-11T03:50:42;5.00;99.90
7331;DHT22;3706;49.198;7.064;2022-11-11T03:53:11;5.20;99.90
7331;DHT22;3706;49.198;7.064;2022-11-11T03:55:44;5.40;99.90
7331;DHT22;3706;49.198;7.064;2022-11-11T03:58:15;5.60;99.90
7331;DHT22;3706;49.198;7.064;2022-11-11T04:00:46;5.60;99.90
7331;DHT22;3706;49.198;7.064;2022-11-11T04:03:17;5.60;99.90
7331;DHT22;3706;49.198;7.064;2022-11-11T04:06:04;5.60;99.90
7331;DHT22;3706;49.198;7.064;2022-11-11T04:08:49;5.50;99.90
7331;DHT22;3706;49.198;7.064;2022-11-11T04:11:36;5.40;99.90
7331;DHT22;3706;49.198;7.064;2022-11-11T04:14:08;5.30;99.90
7331;DHT22;3706;49.198;7.064;2022-11-11T04:16:54;5.30;99.90
7331;DHT22;3706;49.198;7.064;2022-11-11T04:19:22;5.40;99.90
7331;DHT22;3706;49.198;7.064;2022-11-11T04:22:10;5.50;99.90
7331;DHT22;3706;49.198;7.064;2022-11-11T04:24:39;5.50;99.90
7331;DHT22;3706;49.198;7.064;2022-11-11T04:27:35;5.50;99.90
7331;DHT22;3706;49.198;7.064;2022-11-11T04:30:06;5.70;99.90
7331;DHT22;3706;49.198;7.064;2022-11-11T04:32:40;5.70;99.90
7331;DHT22;3706;49.198;7.064;2022-11-11T04:35:09;5.90;99.90
7331;DHT22;3706;49.198;7.064;2022-11-11T04:37:46;5.80;99.90
7331;DHT22;3706;49.198;7.064;2022-11-11T04:40:15;5.80;99.90
7331;DHT22;3706;49.198;7.064;2022-11-11T04:42:59;5.80;99.90
7331;DHT22;3706;49.198;7.064;2022-11-11T04:45:29;5.80;99.90
7331;DHT22;3706;49.198;7.064;2022-11-11T04:47:58;5.70;99.90
7331;DHT22;3706;49.198;7.064;2022-11-11T04:50:28;5.70;99.90
7331;DHT22;3706;49.198;7.064;2022-11-11T04:52:56;5.60;99.90
7331;DHT22;3706;49.198;7.064;2022-11-11T04:55:23;5.50;99.90
7331;DHT22;3706;49.198;7.064;2022-11-11T04:58:08;5.30;99.90
7331;DHT22;3706;49.198;7.064;2022-11-11T05:00:35;5.20;99.90
7331;DHT22;3706;49.198;7.064;2022-11-11T05:03:04;5.00;99.90
7331;DHT22;3706;49.198;7.064;2022-11-11T05:05:48;5.00;99.90
7331;DHT22;3706;49.198;7.064;2022-11-11T05:08:34;4.90;99.90
7331;DHT22;3706;49.198;7.064;2022-11-11T05:11:19;4.70;99.90
7331;DHT22;3706;49.198;7.064;2022-11-11T05:13:47;4.60;99.90
7331;DHT22;3706;49.198;7.064;2022-11-11T05:16:37;4.50;99.90
7331;DHT22;3706;49.198;7.064;2022-11-11T05:19:24;4.50;99.90
7331;DHT22;3706;49.198;7.064;2022-11-11T05:22:11;4.50;99.90
7331;DHT22;3706;49.198;7.064;2022-11-11T05:24:39;4.70;99.90
7331;DHT22;3706;49.198;7.064;2022-11-11T05:27:23;4.70;99.90
7331;DHT22;3706;49.198;7.064;2022-11-11T05:29:51;4.60;99.90
7331;DHT22;3706;49.198;7.064;2022-11-11T05:32:20;4.70;99.90
7331;DHT22;3706;49.198;7.064;2022-11-11T05:34:51;4.70;99.90
7331;DHT22;3706;49.198;7.064;2022-11-11T05:37:19;4.70;99.90
7331;DHT22;3706;49.198;7.064;2022-11-11T05:39:49;4.60;99.90
7331;DHT22;3706;49.198;7.064;2022-11-11T05:42:19;4.40;99.90
7331;DHT22;3706;49.198;7.064;2022-11-11T05:44:46;4.40;99.90
7331;DHT22;3706;49.198;7.064;2022-11-11T05:47:14;4.60;99.90
7331;DHT22;3706;49.198;7.064;2022-11-11T05:49:42;4.50;99.90
7331;DHT22;3706;49.198;7.064;2022-11-11T05:52:15;4.40;99.90
7331;DHT22;3706;49.198;7.064;2022-11-11T05:54:44;4.30;99.90
7331;DHT22;3706;49.198;7.064;2022-11-11T05:57:16;4.20;99.90
7331;DHT22;3706;49.198;7.064;2022-11-11T05:59:48;4.10;99.90
7331;DHT22;3706;49.198;7.064;2022-11-11T06:02:19;4.10;99.90
7331;DHT22;3706;49.198;7.064;2022-11-11T06:04:54;4.20;99.90
7331;DHT22;3706;49.198;7.064;2022-11-11T06:07:26;4.10;99.90
7331;DHT22;3706;49.198;7.064;2022-11-11T06:09:58;4.20;99.90
7331;DHT22;3706;49.198;7.064;2022-11-11T06:12:43;4.20;99.90
7331;DHT22;3706;49.198;7.064;2022-11-11T06:15:24;4.30;99.90
7331;DHT22;3706;49.198;7.064;2022-11-11T06:17:56;4.30;99.90
7331;DHT22;3706;49.198;7.064;2022-11-11T06:20:29;4.30;99.90
7331;DHT22;3706;49.198;7.064;2022-11-11T06:23:04;4.20;99.90
7331;DHT22;3706;49.198;7.064;2022-11-11T06:25:50;4.20;99.90
7331;DHT22;3706;49.198;7.064;2022-11-11T06:28:42;4.20;99.90
7331;DHT22;3706;49.198;7.064;2022-11-11T06:31:12;4.30;99.90
7331;DHT22;3706;49.198;7.064;2022-11-11T06:33:42;4.30;99.90
7331;DHT22;3706;49.198;7.064;2022-11-11T06:36:11;4.40;99.90
7331;DHT22;3706;49.198;7.064;2022-11-11T06:38:41;4.40;99.90
7331;DHT22;3706;49.198;7.064;2022-11-11T06:41:12;4.50;99.90
7331;DHT22;3706;49.198;7.064;2022-11-11T06:43:41;4.70;99.90
7331;DHT22;3706;49.198;7.064;2022-11-11T06:46:20;4.80;99.90
7331;DHT22;3706;49.198;7.064;2022-11-11T06:49:05;4.90;99.90
7331;DHT22;3706;49.198;7.064;2022-11-11T06:51:34;5.00;99.90
7331;DHT22;3706;49.198;7.064;2022-11-11T06:54:05;5.10;99.90
7331;DHT22;3706;49.198;7.064;2022-11-11T06:56:33;5.20;99.90
7331;DHT22;3706;49.198;7.064;2022-11-11T06:59:57;5.20;99.90
7331;DHT22;3706;49.198;7.064;2022-11-11T07:02:09;5.10;99.90
7331;DHT22;3706;49.198;7.064;2022-11-11T07:04:40;5.00;99.90
7331;DHT22;3706;49.198;7.064;2022-11-11T07:07:08;5.00;99.90
7331;DHT22;3706;49.198;7.064;2022-11-11T07:09:37;5.10;99.90
7331;DHT22;3706;49.198;7.064;2022-11-11T07:12:08;5.20;99.90
7331;DHT22;3706;49.198;7.064;2022-11-11T07:14:36;5.20;99.90
7331;DHT22;3706;49.198;7.064;2022-11-11T07:17:06;5.20;99.90
7331;DHT22;3706;49.198;7.064;2022-11-11T07:19:34;5.30;99.90
7331;DHT22;3706;49.198;7.064;2022-11-11T07:22:03;5.30;99.90
7331;DHT22;3706;49.198;7.064;2022-11-11T07:24:30;5.20;99.90
7331;DHT22;3706;49.198;7.064;2022-11-11T07:27:02;5.20;99.90
7331;DHT22;3706;49.198;7.064;2022-11-11T07:29:29;5.20;99.90
7331;DHT22;3706;49.198;7.064;2022-11-11T07:31:59;5.30;99.90
7331;DHT22;3706;49.198;7.064;2022-11-11T07:34:27;5.40;99.90
7331;DHT22;3706;49.198;7.064;2022-11-11T07:36:54;5.70;99.90
7331;DHT22;3706;49.198;7.064;2022-11-11T07:39:21;5.70;99.90
7331;DHT22;3706;49.198;7.064;2022-11-11T07:41:48;5.90;99.90
7331;DHT22;3706;49.198;7.064;2022-11-11T07:44:17;6.00;99.90
7331;DHT22;3706;49.198;7.064;2022-11-11T07:46:44;6.00;99.90
7331;DHT22;3706;49.198;7.064;2022-11-11T07:49:14;6.10;99.90
7331;DHT22;3706;49.198;7.064;2022-11-11T07:51:46;6.10;99.90
7331;DHT22;3706;49.198;7.064;2022-11-11T07:54:23;6.20;99.90
7331;DHT22;3706;49.198;7.064;2022-11-11T07:57:13;6.30;99.90
7331;DHT22;3706;49.198;7.064;2022-11-11T07:59:45;6.20;99.90
7331;DHT22;3706;49.198;7.064;2022-11-11T08:02:18;6.10;99.90
7331;DHT22;3706;49.198;7.064;2022-11-11T08:04:47;6.10;99.90
7331;DHT22;3706;49.198;7.064;2022-11-11T08:07:20;6.10;99.90
7331;DHT22;3706;49.198;7.064;2022-11-11T08:10:10;6.10;99.90
7331;DHT22;3706;49.198;7.064;2022-11-11T08:12:52;6.10;99.90
7331;DHT22;3706;49.198;7.064;2022-11-11T08:15:38;6.10;99.90
7331;DHT22;3706;49.198;7.064;2022-11-11T08:18:09;6.20;99.90
7331;DHT22;3706;49.198;7.064;2022-11-11T08:20:39;6.30;99.90
7331;DHT22;3706;49.198;7.064;2022-11-11T08:23:06;6.40;99.90
7331;DHT22;3706;49.198;7.064;2022-11-11T08:25:37;6.50;99.90
7331;DHT22;3706;49.198;7.064;2022-11-11T08:28:05;6.60;99.90
7331;DHT22;3706;49.198;7.064;2022-11-11T08:30:33;6.80;99.90
7331;DHT22;3706;49.198;7.064;2022-11-11T08:33:03;7.00;99.90
7331;DHT22;3706;49.198;7.064;2022-11-11T08:35:34;7.10;99.90
7331;DHT22;3706;49.198;7.064;2022-11-11T08:38:03;7.20;99.90
7331;DHT22;3706;49.198;7.064;2022-11-11T08:40:30;7.30;99.90
7331;DHT22;3706;49.198;7.064;2022-11-11T08:42:59;7.50;99.90
7331;DHT22;3706;49.198;7.064;2022-11-11T08:45:32;7.70;99.90
7331;DHT22;3706;49.198;7.064;2022-11-11T08:48:01;7.80;99.90
7331;DHT22;3706;49.198;7.064;2022-11-11T08:50:29;8.00;99.90
7331;DHT22;3706;49.198;7.064;2022-11-11T08:52:56;8.20;99.90
7331;DHT22;3706;49.198;7.064;2022-11-11T08:55:26;8.30;99.90
7331;DHT22;3706;49.198;7.064;2022-11-11T08:58:05;8.50;99.90
7331;DHT22;3706;49.198;7.064;2022-11-11T09:00:33;8.60;99.90
7331;DHT22;3706;49.198;7.064;2022-11-11T09:03:06;8.60;99.90
7331;DHT22;3706;49.198;7.064;2022-11-11T09:05:33;8.50;99.90
7331;DHT22;3706;49.198;7.064;2022-11-11T09:08:04;8.60;99.90
7331;DHT22;3706;49.198;7.064;2022-11-11T09:10:33;8.70;99.90
7331;DHT22;3706;49.198;7.064;2022-11-11T09:13:04;8.80;99.90
7331;DHT22;3706;49.198;7.064;2022-11-11T09:15:34;8.90;99.90
7331;DHT22;3706;49.198;7.064;2022-11-11T09:18:05;9.00;99.90
7331;DHT22;3706;49.198;7.064;2022-11-11T09:20:39;9.10;99.90
7331;DHT22;3706;49.198;7.064;2022-11-11T09:23:11;9.30;99.90
7331;DHT22;3706;49.198;7.064;2022-11-11T09:25:39;9.50;99.90
7331;DHT22;3706;49.198;7.064;2022-11-11T09:28:06;9.70;99.90
7331;DHT22;3706;49.198;7.064;2022-11-11T09:30:35;9.80;99.90
7331;DHT22;3706;49.198;7.064;2022-11-11T09:33:04;9.80;99.90
7331;DHT22;3706;49.198;7.064;2022-11-11T09:35:31;10.00;99.90
7331;DHT22;3706;49.198;7.064;2022-11-11T09:38:00;10.00;99.90
7331;DHT22;3706;49.198;7.064;2022-11-11T09:40:42;10.00;99.90
7331;DHT22;3706;49.198;7.064;2022-11-11T09:43:18;10.00;99.90
7331;DHT22;3706;49.198;7.064;2022-11-11T09:46:02;10.10;99.90
7331;DHT22;3706;49.198;7.064;2022-11-11T09:48:43;10.20;99.90
7331;DHT22;3706;49.198;7.064;2022-11-11T09:51:18;10.40;99.90
7331;DHT22;3706;49.198;7.064;2022-11-11T09:53:51;10.50;99.90
7331;DHT22;3706;49.198;7.064;2022-11-11T09:56:23;10.40;99.90
7331;DHT22;3706;49.198;7.064;2022-11-11T10:01:30;10.30;99.90
7331;DHT22;3706;49.198;7.064;2022-11-11T10:04:06;10.10;99.90
7331;DHT22;3706;49.198;7.064;2022-11-11T10:06:38;9.90;99.90
7331;DHT22;3706;49.198;7.064;2022-11-11T10:09:07;9.70;99.90
7331;DHT22;3706;49.198;7.064;2022-11-11T10:11:47;9.70;99.90
7331;DHT22;3706;49.198;7.064;2022-11-11T10:14:17;9.60;99.90
7331;DHT22;3706;49.198;7.064;2022-11-11T10:16:50;9.60;99.90
7331;DHT22;3706;49.198;7.064;2022-11-11T10:19:28;9.60;99.90
7331;DHT22;3706;49.198;7.064;2022-11-11T10:21:58;9.60;99.90
7331;DHT22;3706;49.198;7.064;2022-11-11T10:24:29;9.60;99.90
7331;DHT22;3706;49.198;7.064;2022-11-11T10:27:01;9.60;99.90
7331;DHT22;3706;49.198;7.064;2022-11-11T10:29:35;9.70;99.90
7331;DHT22;3706;49.198;7.064;2022-11-11T10:32:11;9.60;99.90
7331;DHT22;3706;49.198;7.064;2022-11-11T10:34:43;9.60;99.90
7331;DHT22;3706;49.198;7.064;2022-11-11T10:37:18;9.70;99.90
7331;DHT22;3706;49.198;7.064;2022-11-11T10:39:55;9.60;99.90
7331;DHT22;3706;49.198;7.064;2022-11-11T10:42:24;9.60;99.90
7331;DHT22;3706;49.198;7.064;2022-11-11T10:44:55;9.60;99.90
7331;DHT22;3706;49.198;7.064;2022-11-11T10:47:34;9.70;99.90
7331;DHT22;3706;49.198;7.064;2022-11-11T10:50:12;9.80;99.90
7331;DHT22;3706;49.198;7.064;2022-11-11T10:52:44;10.00;99.90
7331;DHT22;3706;49.198;7.064;2022-11-11T10:55:17;10.20;99.90
7331;DHT22;3706;49.198;7.064;2022-11-11T10:57:49;10.30;99.90
7331;DHT22;3706;49.198;7.064;2022-11-11T11:00:19;10.50;99.90
7331;DHT22;3706;49.198;7.064;2022-11-11T11:02:51;10.50;99.90
7331;DHT22;3706;49.198;7.064;2022-11-11T11:05:24;10.60;99.90
7331;DHT22;3706;49.198;7.064;2022-11-11T11:07:54;10.70;99.90
7331;DHT22;3706;49.198;7.064;2022-11-11T11:10:26;10.70;99.90
7331;DHT22;3706;49.198;7.064;2022-11-11T11:12:59;10.70;99.90
7331;DHT22;3706;49.198;7.064;2022-11-11T11:15:30;10.80;99.90
7331;DHT22;3706;49.198;7.064;2022-11-11T11:18:02;10.80;99.90
7331;DHT22;3706;49.198;7.064;2022-11-11T11:20:31;10.80;99.90
7331;DHT22;3706;49.198;7.064;2022-11-11T11:22:58;10.80;99.90
7331;DHT22;3706;49.198;7.064;2022-11-11T11:25:28;10.90;99.90
7331;DHT22;3706;49.198;7.064;2022-11-11T11:28:05;10.90;99.90
7331;DHT22;3706;49.198;7.064;2022-11-11T11:30:32;10.80;99.90
7331;DHT22;3706;49.198;7.064;2022-11-11T11:33:00;10.80;99.90
7331;DHT22;3706;49.198;7.064;2022-11-11T11:35:34;10.70;99.90
7331;DHT22;3706;49.198;7.064;2022-11-11T11:38:02;10.70;99.90
7331;DHT22;3706;49.198;7.064;2022-11-11T11:40:47;10.70;99.90
7331;DHT22;3706;49.198;7.064;2022-11-11T11:43:26;10.50;99.90
7331;DHT22;3706;49.198;7.064;2022-11-11T11:45:58;10.60;99.90
7331;DHT22;3706;49.198;7.064;2022-11-11T11:48:43;10.50;99.90
7331;DHT22;3706;49.198;7.064;2022-11-11T11:51:24;10.60;99.90
7331;DHT22;3706;49.198;7.064;2022-11-11T11:54:06;10.70;99.90
7331;DHT22;3706;49.198;7.064;2022-11-11T11:56:40;10.80;99.90
7331;DHT22;3706;49.198;7.064;2022-11-11T11:59:12;10.90;99.90
7331;DHT22;3706;49.198;7.064;2022-11-11T12:01:50;10.90;99.90
7331;DHT22;3706;49.198;7.064;2022-11-11T12:04:39;10.90;99.90
7331;DHT22;3706;49.198;7.064;2022-11-11T12:07:18;10.90;99.90
7331;DHT22;3706;49.198;7.064;2022-11-11T12:09:57;10.90;99.90
7331;DHT22;3706;49.198;7.064;2022-11-11T12:12:35;10.80;99.90
7331;DHT22;3706;49.198;7.064;2022-11-11T12:15:24;10.70;99.90
7331;DHT22;3706;49.198;7.064;2022-11-11T12:18:06;10.60;99.90
7331;DHT22;3706;49.198;7.064;2022-11-11T12:20:40;10.70;99.90
7331;DHT22;3706;49.198;7.064;2022-11-11T12:23:38;10.80;99.90
7331;DHT22;3706;49.198;7.064;2022-11-11T12:26:16;10.90;99.90
7331;DHT22;3706;49.198;7.064;2022-11-11T12:28:55;11.00;99.90
7331;DHT22;3706;49.198;7.064;2022-11-11T12:31:30;11.10;99.90
7331;DHT22;3706;49.198;7.064;2022-11-11T12:34:15;11.30;99.90
7331;DHT22;3706;49.198;7.064;2022-11-11T12:36:53;11.40;99.90
7331;DHT22;3706;49.198;7.064;2022-11-11T12:39:42;11.30;99.90
7331;DHT22;3706;49.198;7.064;2022-11-11T12:42:23;11.20;99.90
7331;DHT22;3706;49.198;7.064;2022-11-11T12:44:57;11.20;99.90
7331;DHT22;3706;49.198;7.064;2022-11-11T12:47:34;11.30;99.90
7331;DHT22;3706;49.198;7.064;2022-11-11T12:50:11;11.40;99.90
7331;DHT22;3706;49.198;7.064;2022-11-11T12:52:51;11.40;99.90
7331;DHT22;3706;49.198;7.064;2022-11-11T12:55:27;11.20;99.90
7331;DHT22;3706;49.198;7.064;2022-11-11T12:58:05;11.10;99.90
7331;DHT22;3706;49.198;7.064;2022-11-11T13:00:38;11.00;99.90
7331;DHT22;3706;49.198;7.064;2022-11-11T13:03:34;10.90;99.90
7331;DHT22;3706;49.198;7.064;2022-11-11T13:06:14;10.80;99.90
7331;DHT22;3706;49.198;7.064;2022-11-11T13:09:23;10.80;99.90
7331;DHT22;3706;49.198;7.064;2022-11-11T13:12:01;10.80;99.90
7331;DHT22;3706;49.198;7.064;2022-11-11T13:14:42;10.70;99.90
7331;DHT22;3706;49.198;7.064;2022-11-11T13:17:12;10.70;99.90
7331;DHT22;3706;49.198;7.064;2022-11-11T13:19:43;10.60;99.90
7331;DHT22;3706;49.198;7.064;2022-11-11T13:22:16;10.40;99.90
7331;DHT22;3706;49.198;7.064;2022-11-11T13:24:47;10.30;99.90
7331;DHT22;3706;49.198;7.064;2022-11-11T13:27:19;10.20;99.90
7331;DHT22;3706;49.198;7.064;2022-11-11T13:32:50;9.90;99.90
7331;DHT22;3706;49.198;7.064;2022-11-11T13:35:23;9.90;99.90
7331;DHT22;3706;49.198;7.064;2022-11-11T13:37:52;10.00;99.90
7331;DHT22;3706;49.198;7.064;2022-11-11T13:40:38;10.00;99.90
7331;DHT22;3706;49.198;7.064;2022-11-11T13:43:15;9.90;99.90
7331;DHT22;3706;49.198;7.064;2022-11-11T13:45:50;9.90;99.90
7331;DHT22;3706;49.198;7.064;2022-11-11T13:48:22;9.90;99.90
7331;DHT22;3706;49.198;7.064;2022-11-11T13:50:50;9.80;99.90
7331;DHT22;3706;49.198;7.064;2022-11-11T13:53:26;9.70;99.90
7331;DHT22;3706;49.198;7.064;2022-11-11T13:56:00;9.60;99.90
7331;DHT22;3706;49.198;7.064;2022-11-11T13:58:31;9.50;99.90
7331;DHT22;3706;49.198;7.064;2022-11-11T14:01:00;9.40;99.90
7331;DHT22;3706;49.198;7.064;2022-11-11T14:03:31;9.40;99.90
7331;DHT22;3706;49.198;7.064;2022-11-11T14:12:32;9.50;99.90
7331;DHT22;3706;49.198;7.064;2022-11-11T14:15:01;9.50;99.90
7331;DHT22;3706;49.198;7.064;2022-11-11T14:17:33;9.40;99.90
7331;DHT22;3706;49.198;7.064;2022-11-11T14:23:15;9.20;99.90
7331;DHT22;3706;49.198;7.064;2022-11-11T14:25:48;9.10;99.90
7331;DHT22;3706;49.198;7.064;2022-11-11T14:28:21;9.10;99.90
7331;DHT22;3706;49.198;7.064;2022-11-11T14:30:50;9.00;99.90
7331;DHT22;3706;49.198;7.064;2022-11-11T14:33:37;8.90;99.90
7331;DHT22;3706;49.198;7.064;2022-11-11T14:36:18;8.90;99.90
7331;DHT22;3706;49.198;7.064;2022-11-11T14:38:50;8.90;99.90
7331;DHT22;3706;49.198;7.064;2022-11-11T14:41:46;8.80;99.90
7331;DHT22;3706;49.198;7.064;2022-11-11T14:44:38;8.80;99.90
7331;DHT22;3706;49.198;7.064;2022-11-11T14:47:23;8.80;99.90
7331;DHT22;3706;49.198;7.064;2022-11-11T14:49:51;8.70;99.90
7331;DHT22;3706;49.198;7.064;2022-11-11T14:52:25;8.80;99.90
7331;DHT22;3706;49.198;7.064;2022-11-11T14:54:58;8.70;99.90
7331;DHT22;3706;49.198;7.064;2022-11-11T14:57:31;8.70;99.90
7331;DHT22;3706;49.198;7.064;2022-11-11T15:00:01;8.60;99.90
7331;DHT22;3706;49.198;7.064;2022-11-11T15:02:33;8.60;99.90
7331;DHT22;3706;49.198;7.064;2022-11-11T15:05:02;8.50;99.90
7331;DHT22;3706;49.198;7.064;2022-11-11T15:07:58;8.70;99.90
7331;DHT22;3706;49.198;7.064;2022-11-11T15:10:35;8.70;99.90
7331;DHT22;3706;49.198;7.064;2022-11-11T15:16:19;8.90;99.90
7331;DHT22;3706;49.198;7.064;2022-11-11T15:19:07;8.80;99.90
7331;DHT22;3706;49.198;7.064;2022-11-11T15:21:44;8.90;99.90
7331;DHT22;3706;49.198;7.064;2022-11-11T15:24:23;8.80;99.90
7331;DHT22;3706;49.198;7.064;2022-11-11T15:26:58;8.80;99.90
7331;DHT22;3706;49.198;7.064;2022-11-11T15:29:55;8.70;99.90
7331;DHT22;3706;49.198;7.064;2022-11-11T15:32:35;8.70;99.90
7331;DHT22;3706;49.198;7.064;2022-11-11T15:35:26;8.60;99.90
7331;DHT22;3706;49.198;7.064;2022-11-11T15:37:57;8.50;99.90
7331;DHT22;3706;49.198;7.064;2022-11-11T15:40:26;8.40;99.90
7331;DHT22;3706;49.198;7.064;2022-11-11T15:42:56;8.30;99.90
7331;DHT22;3706;49.198;7.064;2022-11-11T15:45:27;8.30;99.90
7331;DHT22;3706;49.198;7.064;2022-11-11T15:47:56;8.30;99.90
7331;DHT22;3706;49.198;7.064;2022-11-11T15:50:32;8.30;99.90
7331;DHT22;3706;49.198;7.064;2022-11-11T15:53:01;8.20;99.90
7331;DHT22;3706;49.198;7.064;2022-11-11T15:55:29;8.20;99.90
7331;DHT22;3706;49.198;7.064;2022-11-11T15:58:08;8.20;99.90
7331;DHT22;3706;49.198;7.064;2022-11-11T16:00:36;8.20;99.90
7331;DHT22;3706;49.198;7.064;2022-11-11T16:03:04;8.20;99.90
7331;DHT22;3706;49.198;7.064;2022-11-11T16:05:33;8.20;99.90
7331;DHT22;3706;49.198;7.064;2022-11-11T16:08:03;8.20;99.90
7331;DHT22;3706;49.198;7.064;2022-11-11T16:10:35;8.10;99.90
7331;DHT22;3706;49.198;7.064;2022-11-11T16:13:05;8.10;99.90
7331;DHT22;3706;49.198;7.064;2022-11-11T16:15:39;8.00;99.90
7331;DHT22;3706;49.198;7.064;2022-11-11T16:18:13;8.00;99.90
7331;DHT22;3706;49.198;7.064;2022-11-11T16:20:47;8.00;99.90
7331;DHT22;3706;49.198;7.064;2022-11-11T16:23:17;8.00;99.90
7331;DHT22;3706;49.198;7.064;2022-11-11T16:25:46;8.00;99.90
7331;DHT22;3706;49.198;7.064;2022-11-11T16:28:15;8.10;99.90
7331;DHT22;3706;49.198;7.064;2022-11-11T16:30:46;8.10;99.90
7331;DHT22;3706;49.198;7.064;2022-11-11T16:33:39;8.10;99.90
7331;DHT22;3706;49.198;7.064;2022-11-11T16:36:11;8.10;99.90
7331;DHT22;3706;49.198;7.064;2022-11-11T16:38:40;8.10;99.90
7331;DHT22;3706;49.198;7.064;2022-11-11T16:41:24;8.10;99.90
7331;DHT22;3706;49.198;7.064;2022-11-11T16:43:56;8.10;99.90
7331;DHT22;3706;49.198;7.064;2022-11-11T16:46:46;8.10;99.90
7331;DHT22;3706;49.198;7.064;2022-11-11T16:49:24;8.10;99.90
7331;DHT22;3706;49.198;7.064;2022-11-11T16:52:05;8.00;99.90
7331;DHT22;3706;49.198;7.064;2022-11-11T16:54:39;8.00;99.90
7331;DHT22;3706;49.198;7.064;2022-11-11T16:57:27;7.90;99.90
7331;DHT22;3706;49.198;7.064;2022-11-11T17:00:00;7.80;99.90
7331;DHT22;3706;49.198;7.064;2022-11-11T17:02:33;7.70;99.90
7331;DHT22;3706;49.198;7.064;2022-11-11T17:05:03;7.70;99.90
7331;DHT22;3706;49.198;7.064;2022-11-11T17:07:40;7.70;99.90
7331;DHT22;3706;49.198;7.064;2022-11-11T17:10:11;7.60;99.90
7331;DHT22;3706;49.198;7.064;2022-11-11T17:12:42;7.60;99.90
7331;DHT22;3706;49.198;7.064;2022-11-11T17:15:17;7.60;99.90